Time;durP1;ratioP1;P1;durP2;ratioP2;P2;SDS_P1;SDS_P2;PMS_P1;PMS_P2;Temp;Humidity;BMP_temperature;BMP_pressure;BME280_temperature;BME280_humidity;BME280_pressure;Samples;Min_cycle;Max_cycle;Signal;HPM_P1;HPM_P2
2022/08/10 00:02:54;;;;;;;5.17;2.63;;;;;;;;;;5011428;28;20904;-69
2022/08/10 00:05:22;;;;;;;3.87;2.30;;;;;;;;;;5011875;28;20459;-68
2022/08/10 00:07:49;;;;;;;3.40;1.77;;;;;;;;;;5040569;28;20456;-69
2022/08/10 00:10:19;;;;;;;5.60;2.87;;;;;;;;;;5074731;28;20619;-69
2022/08/10 00:12:46;;;;;;;6.77;2.13;;;;;;;;;;5074855;28;20467;-70
2022/08/10 00:15:15;;;;;;;5.63;1.90;;;;;;;;;;5073649;28;20510;-69
2022/08/10 00:17:42;;;;;;;4.27;2.07;;;;;;;;;;5074543;28;20448;-70
2022/08/10 00:20:10;;;;;;;3.37;2.00;;;;;;;;;;5073020;28;20467;-70
2022/08/10 00:22:37;;;;;;;4.20;2.17;;;;;;;;;;5073557;28;20480;-70
2022/08/10 00:25:04;;;;;;;3.93;2.27;;;;;;;;;;5072835;28;20449;-70
2022/08/10 00:27:33;;;;;;;2.80;2.00;;;;;;;;;;5073848;28;20457;-70
2022/08/10 00:30:00;;;;;;;2.40;1.50;;;;;;;;;;5073623;28;20482;-70
2022/08/10 00:32:27;;;;;;;5.13;2.40;;;;;;;;;;5072604;28;20449;-70
2022/08/10 00:34:54;;;;;;;5.27;2.60;;;;;;;;;;5073495;28;20642;-70
2022/08/10 00:37:21;;;;;;;3.00;2.27;;;;;;;;;;5071986;28;20469;-70
2022/08/10 00:39:48;;;;;;;3.00;1.90;;;;;;;;;;5073100;28;20455;-70
2022/08/10 00:42:16;;;;;;;3.70;2.17;;;;;;;;;;5072459;28;20689;-69
2022/08/10 00:44:45;;;;;;;6.00;2.37;;;;;;;;;;5073038;28;20459;-69
2022/08/10 00:47:12;;;;;;;4.67;2.53;;;;;;;;;;5072829;28;20866;-69
2022/08/10 00:49:40;;;;;;;7.77;3.30;;;;;;;;;;5073573;28;20455;-69
2022/08/10 00:52:07;;;;;;;2.80;1.87;;;;;;;;;;5073131;28;20460;-69
2022/08/10 00:54:35;;;;;;;4.10;2.30;;;;;;;;;;5073581;28;20465;-69
2022/08/10 00:57:02;;;;;;;3.40;1.97;;;;;;;;;;5072927;28;20845;-69
2022/08/10 00:59:30;;;;;;;4.20;2.17;;;;;;;;;;5073158;28;20749;-69
2022/08/10 01:01:58;;;;;;;3.93;2.10;;;;;;;;;;5073054;28;20444;-69
2022/08/10 01:04:25;;;;;;;5.43;1.80;;;;;;;;;;5072574;28;20495;-70
2022/08/10 01:07:01;;;;;;;3.90;1.97;;;;;;;;;;5072796;28;20451;-69
2022/08/10 01:09:31;;;;;;;5.93;2.30;;;;;;;;;;5073164;28;20534;-69
2022/08/10 01:12:01;;;;;;;3.20;2.20;;;;;;;;;;5072050;28;20455;-69
2022/08/10 01:14:34;;;;;;;5.20;2.50;;;;;;;;;;5072450;28;20486;-69
2022/08/10 01:17:04;;;;;;;8.77;2.37;;;;;;;;;;5072938;28;20676;-70
2022/08/10 01:19:41;;;;;;;4.80;2.13;;;;;;;;;;5072178;28;20456;-69
2022/08/10 01:22:19;;;;;;;5.40;2.10;;;;;;;;;;5072419;28;20464;-69
2022/08/10 01:24:59;;;;;;;3.43;2.30;;;;;;;;;;5073324;28;20880;-69
2022/08/10 01:27:29;;;;;;;3.50;2.00;;;;;;;;;;5072536;28;20464;-69
2022/08/10 01:30:00;;;;;;;3.77;2.50;;;;;;;;;;5072432;28;20464;-69
2022/08/10 01:32:48;;;;;;;3.37;2.07;;;;;;;;;;5071328;28;20903;-69
2022/08/10 01:35:17;;;;;;;5.60;2.13;;;;;;;;;;5068547;28;20453;-69
2022/08/10 01:37:47;;;;;;;3.20;2.40;;;;;;;;;;5072707;28;20456;-69
2022/08/10 01:40:15;;;;;;;4.50;3.20;;;;;;;;;;5072229;28;20449;-69
2022/08/10 01:42:45;;;;;;;5.77;2.93;;;;;;;;;;5071839;28;20819;-70
2022/08/10 01:45:14;;;;;;;5.07;2.50;;;;;;;;;;5072823;28;20505;-69
2022/08/10 01:50:30;;;;;;;3.87;2.70;;;;;;;;;;5072474;28;20783;-69
2022/08/10 01:53:01;;;;;;;3.40;2.33;;;;;;;;;;5072601;28;20444;-69
2022/08/10 01:55:28;;;;;;;4.30;2.23;;;;;;;;;;5073261;28;20861;-69
2022/08/10 01:57:56;;;;;;;4.90;2.03;;;;;;;;;;5072312;28;20461;-69
2022/08/10 02:00:25;;;;;;;3.00;2.30;;;;;;;;;;5073361;28;20463;-69
2022/08/10 02:02:53;;;;;;;3.73;2.30;;;;;;;;;;5072325;28;21883;-69
2022/08/10 02:05:25;;;;;;;4.63;2.77;;;;;;;;;;5077014;28;20449;-69
2022/08/10 02:07:52;;;;;;;4.30;2.67;;;;;;;;;;5075736;28;20725;-69
2022/08/10 02:10:21;;;;;;;3.40;2.40;;;;;;;;;;5076326;28;20449;-69
2022/08/10 02:12:55;;;;;;;5.30;2.93;;;;;;;;;;5075716;28;20464;-69
2022/08/10 02:15:23;;;;;;;3.33;2.70;;;;;;;;;;5075903;28;20673;-69
2022/08/10 02:17:56;;;;;;;3.27;2.57;;;;;;;;;;5075990;28;20456;-69
2022/08/10 02:20:26;;;;;;;5.40;2.57;;;;;;;;;;5075138;28;20865;-69
2022/08/10 02:22:56;;;;;;;4.93;2.47;;;;;;;;;;5076056;28;20628;-69
2022/08/10 02:25:25;;;;;;;3.63;2.60;;;;;;;;;;5074320;28;20444;-68
2022/08/10 02:27:52;;;;;;;4.73;2.60;;;;;;;;;;5074524;28;20732;-69
2022/08/10 02:30:20;;;;;;;4.90;2.50;;;;;;;;;;5074740;28;20524;-69
2022/08/10 02:32:48;;;;;;;6.37;3.00;;;;;;;;;;5075964;28;20706;-69
2022/08/10 02:35:17;;;;;;;5.30;2.93;;;;;;;;;;5075894;28;20459;-69
2022/08/10 02:37:46;;;;;;;5.07;2.67;;;;;;;;;;5075499;28;20749;-69
2022/08/10 02:40:14;;;;;;;8.60;3.33;;;;;;;;;;5075483;28;20476;-69
2022/08/10 02:42:44;;;;;;;3.73;2.37;;;;;;;;;;5074728;28;20841;-69
2022/08/10 02:45:14;;;;;;;6.87;3.00;;;;;;;;;;5075309;28;20452;-69
2022/08/10 02:47:43;;;;;;;3.97;2.93;;;;;;;;;;5075546;28;20459;-69
2022/08/10 02:50:12;;;;;;;3.33;2.67;;;;;;;;;;5075914;28;20865;-69
2022/08/10 02:52:42;;;;;;;4.87;2.50;;;;;;;;;;5074935;28;20457;-69
2022/08/10 02:55:13;;;;;;;4.03;2.97;;;;;;;;;;5074482;28;20492;-69
2022/08/10 02:57:43;;;;;;;3.27;2.40;;;;;;;;;;5075440;28;20456;-69
2022/08/10 03:00:11;;;;;;;3.87;2.70;;;;;;;;;;5075173;28;20538;-69
2022/08/10 03:02:39;;;;;;;6.13;3.23;;;;;;;;;;5075107;28;20452;-69
2022/08/10 03:05:08;;;;;;;5.10;3.10;;;;;;;;;;5073828;28;20498;-68
2022/08/10 03:07:37;;;;;;;4.63;3.13;;;;;;;;;;5074404;28;20948;-69
2022/08/10 03:10:08;;;;;;;9.80;5.90;;;;;;;;;;5075353;28;20606;-69
2022/08/10 03:12:42;;;;;;;3.77;2.90;;;;;;;;;;5075013;28;20744;-71
2022/08/10 03:15:11;;;;;;;4.17;3.23;;;;;;;;;;5073716;28;20457;-70
2022/08/10 03:17:40;;;;;;;5.13;3.40;;;;;;;;;;5055745;28;20591;-70
2022/08/10 03:20:10;;;;;;;4.37;3.43;;;;;;;;;;5074497;28;20841;-70
2022/08/10 03:22:37;;;;;;;5.13;3.60;;;;;;;;;;5075305;28;20506;-69
2022/08/10 03:25:06;;;;;;;4.67;3.30;;;;;;;;;;5073952;28;20863;-70
2022/08/10 03:27:33;;;;;;;4.37;3.37;;;;;;;;;;5073707;28;20448;-70
2022/08/10 03:30:01;;;;;;;4.20;3.50;;;;;;;;;;5074518;28;20469;-70
2022/08/10 03:32:29;;;;;;;18.70;5.23;;;;;;;;;;5074627;28;20534;-70
2022/08/10 03:34:56;;;;;;;5.07;3.20;;;;;;;;;;5073258;28;20733;-70
2022/08/10 03:37:23;;;;;;;6.13;3.70;;;;;;;;;;5073721;28;20452;-70
2022/08/10 03:39:51;;;;;;;5.33;3.27;;;;;;;;;;5074205;28;20471;-70
2022/08/10 03:42:20;;;;;;;4.93;3.30;;;;;;;;;;5073717;28;20867;-69
2022/08/10 03:44:48;;;;;;;4.53;3.90;;;;;;;;;;5074595;28;20495;-70
2022/08/10 03:47:16;;;;;;;4.60;3.43;;;;;;;;;;5074414;28;20721;-70
2022/08/10 03:49:44;;;;;;;4.90;3.40;;;;;;;;;;5074286;28;20461;-70
2022/08/10 03:52:12;;;;;;;5.27;4.60;;;;;;;;;;5074661;28;20459;-70
2022/08/10 03:54:39;;;;;;;4.60;3.57;;;;;;;;;;5075407;28;20479;-69
2022/08/10 03:57:07;;;;;;;5.73;3.87;;;;;;;;;;5074640;28;20441;-70
2022/08/10 03:59:35;;;;;;;6.20;3.70;;;;;;;;;;5087904;28;20956;-70
2022/08/10 04:02:04;;;;;;;5.40;3.30;;;;;;;;;;5092989;28;20848;-71
2022/08/10 04:04:32;;;;;;;6.17;3.93;;;;;;;;;;5093692;28;20479;-70
2022/08/10 04:06:59;;;;;;;5.10;4.03;;;;;;;;;;5094776;28;20436;-70
2022/08/10 04:09:27;;;;;;;5.20;3.63;;;;;;;;;;5094293;28;20455;-69
2022/08/10 04:11:54;;;;;;;8.80;4.73;;;;;;;;;;5094770;28;20552;-70
2022/08/10 04:14:25;;;;;;;5.97;3.70;;;;;;;;;;5095674;28;20803;-70
2022/08/10 04:16:53;;;;;;;8.83;4.00;;;;;;;;;;5094530;28;20447;-70
2022/08/10 04:19:20;;;;;;;6.43;4.30;;;;;;;;;;5094715;28;20448;-70
2022/08/10 04:21:51;;;;;;;4.63;3.37;;;;;;;;;;5093656;28;20452;-70
2022/08/10 04:24:20;;;;;;;6.07;4.77;;;;;;;;;;5091626;28;20669;-70
2022/08/10 04:26:47;;;;;;;4.97;3.80;;;;;;;;;;5092704;28;20868;-69
2022/08/10 04:29:15;;;;;;;7.07;4.20;;;;;;;;;;5091666;28;20462;-69
2022/08/10 04:31:43;;;;;;;5.90;4.10;;;;;;;;;;5094220;28;20439;-69
2022/08/10 04:34:12;;;;;;;6.97;4.40;;;;;;;;;;5093302;28;20751;-69
2022/08/10 04:36:39;;;;;;;7.13;3.93;;;;;;;;;;5092255;28;20451;-69
2022/08/10 04:39:06;;;;;;;7.00;3.53;;;;;;;;;;5092711;28;20534;-70
2022/08/10 04:41:34;;;;;;;5.60;3.47;;;;;;;;;;5092281;28;20883;-69
2022/08/10 04:44:03;;;;;;;7.17;4.23;;;;;;;;;;5093837;28;20487;-69
2022/08/10 04:46:30;;;;;;;12.13;3.90;;;;;;;;;;5092566;28;20451;-69
2022/08/10 04:48:57;;;;;;;13.00;5.20;;;;;;;;;;5093858;28;20674;-69
2022/08/10 04:51:25;;;;;;;6.10;3.90;;;;;;;;;;5093310;28;20533;-69
2022/08/10 04:53:52;;;;;;;7.77;3.87;;;;;;;;;;5092499;28;20460;-69
2022/08/10 04:56:19;;;;;;;4.97;3.80;;;;;;;;;;5083527;28;20541;-70
2022/08/10 04:58:46;;;;;;;5.73;4.00;;;;;;;;;;5072932;28;20436;-69
2022/08/10 05:01:14;;;;;;;6.53;4.13;;;;;;;;;;5073823;28;20457;-69
2022/08/10 05:03:41;;;;;;;6.57;3.60;;;;;;;;;;5072768;28;20691;-69
2022/08/10 05:06:20;;;;;;;4.60;3.63;;;;;;;;;;5072012;28;20513;-68
2022/08/10 05:08:56;;;;;;;10.30;5.03;;;;;;;;;;5075931;28;20522;-69
2022/08/10 05:11:27;;;;;;;4.87;3.70;;;;;;;;;;5090583;28;20463;-70
2022/08/10 05:13:56;;;;;;;5.97;4.53;;;;;;;;;;5093605;28;20444;-68
2022/08/10 05:16:23;;;;;;;14.13;4.53;;;;;;;;;;5092215;28;20491;-68
2022/08/10 05:18:55;;;;;;;7.43;3.67;;;;;;;;;;5089952;28;21218;-68
2022/08/10 05:21:22;;;;;;;9.23;4.40;;;;;;;;;;5091009;28;20473;-69
2022/08/10 05:23:49;;;;;;;8.63;3.50;;;;;;;;;;5090613;28;20578;-68
2022/08/10 05:26:21;;;;;;;10.87;3.87;;;;;;;;;;5091296;28;20452;-69
2022/08/10 05:28:48;;;;;;;11.00;4.93;;;;;;;;;;5090994;28;20516;-68
2022/08/10 05:31:15;;;;;;;8.40;4.00;;;;;;;;;;5089698;28;20566;-69
2022/08/10 05:33:42;;;;;;;4.03;3.07;;;;;;;;;;5091944;28;20494;-68
2022/08/10 05:36:10;;;;;;;6.97;3.87;;;;;;;;;;5092608;28;20733;-68
2022/08/10 05:38:40;;;;;;;12.87;4.17;;;;;;;;;;5090267;28;20467;-69
2022/08/10 05:41:07;;;;;;;5.43;3.60;;;;;;;;;;5091042;28;20460;-68
2022/08/10 05:43:36;;;;;;;8.00;4.77;;;;;;;;;;5091185;28;20487;-69
2022/08/10 05:46:05;;;;;;;9.70;4.03;;;;;;;;;;5089483;28;21041;-68
2022/08/10 05:48:32;;;;;;;13.83;4.10;;;;;;;;;;5090547;28;20452;-69
2022/08/10 05:50:59;;;;;;;5.27;3.20;;;;;;;;;;5090401;28;20652;-69
2022/08/10 05:53:26;;;;;;;6.93;3.53;;;;;;;;;;5074876;28;20464;-69
2022/08/10 05:55:54;;;;;;;10.33;3.90;;;;;;;;;;5072067;28;20472;-69
2022/08/10 05:58:22;;;;;;;6.33;4.80;;;;;;;;;;5071019;28;20822;-69
2022/08/10 06:00:53;;;;;;;6.70;3.23;;;;;;;;;;5069105;28;20770;-69
2022/08/10 06:03:26;;;;;;;8.40;3.20;;;;;;;;;;5069717;28;20515;-69
2022/08/10 06:05:55;;;;;;;11.33;2.93;;;;;;;;;;5071261;28;20566;-69
2022/08/10 06:08:24;;;;;;;5.03;2.70;;;;;;;;;;5071580;28;20456;-69
2022/08/10 06:10:53;;;;;;;3.60;2.93;;;;;;;;;;5071291;28;20455;-69
2022/08/10 06:16:15;;;;;;;5.20;3.40;;;;;;;;;;5069991;28;20808;-69
2022/08/10 06:18:43;;;;;;;6.80;2.47;;;;;;;;;;5070105;28;20867;-69
2022/08/10 06:21:12;;;;;;;6.00;3.17;;;;;;;;;;5071517;28;20820;-69
2022/08/10 06:23:58;;;;;;;5.60;2.87;;;;;;;;;;5070901;28;20919;-70
2022/08/10 06:26:26;;;;;;;5.20;2.97;;;;;;;;;;5072166;28;20514;-70
2022/08/10 06:29:13;;;;;;;4.93;3.53;;;;;;;;;;5071926;28;21083;-70
2022/08/10 06:31:43;;;;;;;6.50;3.70;;;;;;;;;;5072029;28;20465;-70
2022/08/10 06:34:12;;;;;;;6.53;3.57;;;;;;;;;;5070752;28;20460;-71
2022/08/10 06:36:53;;;;;;;7.67;3.30;;;;;;;;;;5093696;28;20466;-71
2022/08/10 06:39:29;;;;;;;7.70;3.17;;;;;;;;;;5091659;28;21507;-71
2022/08/10 06:41:59;;;;;;;6.67;3.27;;;;;;;;;;5089535;28;20457;-71
2022/08/10 06:44:32;;;;;;;4.50;2.50;;;;;;;;;;5089321;28;20545;-71
2022/08/10 06:47:02;;;;;;;10.30;4.10;;;;;;;;;;5088707;28;20459;-71
2022/08/10 06:49:31;;;;;;;14.30;5.40;;;;;;;;;;5091363;28;20459;-70
2022/08/10 06:52:01;;;;;;;7.47;3.20;;;;;;;;;;5092924;28;20472;-70
2022/08/10 06:54:33;;;;;;;8.43;3.67;;;;;;;;;;5092362;28;20458;-71
2022/08/10 06:57:01;;;;;;;3.93;2.40;;;;;;;;;;5093178;28;20459;-71
2022/08/10 06:59:32;;;;;;;10.80;3.40;;;;;;;;;;5092222;28;20451;-71
2022/08/10 07:02:02;;;;;;;5.70;2.60;;;;;;;;;;5091756;28;20452;-71
2022/08/10 07:04:31;;;;;;;6.53;2.80;;;;;;;;;;5090142;28;20611;-71
2022/08/10 07:06:58;;;;;;;6.33;2.70;;;;;;;;;;5090684;28;20837;-70
2022/08/10 07:09:26;;;;;;;4.50;2.90;;;;;;;;;;5091532;28;20895;-71
2022/08/10 07:12:05;;;;;;;4.20;2.83;;;;;;;;;;5094531;28;20448;-71
2022/08/10 07:14:37;;;;;;;5.43;2.57;;;;;;;;;;5091734;28;21003;-71
2022/08/10 07:17:11;;;;;;;4.53;2.50;;;;;;;;;;5073991;28;20555;-71
2022/08/10 07:19:41;;;;;;;11.67;3.80;;;;;;;;;;5074248;28;20452;-70
2022/08/10 07:22:10;;;;;;;6.00;2.60;;;;;;;;;;5082581;28;20452;-70
2022/08/10 07:24:39;;;;;;;4.33;2.33;;;;;;;;;;5094446;28;20556;-70
2022/08/10 07:27:07;;;;;;;5.83;3.10;;;;;;;;;;5094076;28;20447;-70
2022/08/10 07:29:35;;;;;;;5.93;2.80;;;;;;;;;;5094212;28;21016;-70
2022/08/10 07:32:05;;;;;;;4.67;3.00;;;;;;;;;;5100283;28;20909;-70
2022/08/10 07:34:36;;;;;;;3.67;2.50;;;;;;;;;;5114438;28;20743;-70
2022/08/10 07:37:04;;;;;;;9.40;3.10;;;;;;;;;;5111180;28;20898;-70
2022/08/10 07:39:33;;;;;;;3.50;2.07;;;;;;;;;;5106044;28;20449;-70
2022/08/10 07:42:01;;;;;;;9.20;2.60;;;;;;;;;;5096019;28;20930;-71
2022/08/10 07:44:29;;;;;;;4.37;2.53;;;;;;;;;;5081133;28;20546;-71
2022/08/10 07:46:58;;;;;;;7.30;2.20;;;;;;;;;;5114164;28;20519;-71
2022/08/10 07:49:26;;;;;;;5.90;3.20;;;;;;;;;;5105909;28;20454;-71
2022/08/10 07:51:56;;;;;;;8.60;5.17;;;;;;;;;;5081060;28;21127;-71
2022/08/10 07:54:26;;;;;;;4.70;3.40;;;;;;;;;;5072310;28;20540;-71
2022/08/10 07:56:55;;;;;;;4.70;2.20;;;;;;;;;;5082798;28;20472;-71
2022/08/10 07:59:29;;;;;;;5.03;2.57;;;;;;;;;;5082377;28;20773;-70
2022/08/10 08:01:59;;;;;;;3.67;2.00;;;;;;;;;;5089405;28;20468;-70
2022/08/10 08:04:27;;;;;;;4.43;1.67;;;;;;;;;;5087439;28;21067;-71
2022/08/10 08:06:57;;;;;;;11.70;2.10;;;;;;;;;;5094781;28;20732;-71
2022/08/10 08:09:25;;;;;;;5.47;2.60;;;;;;;;;;5091875;28;20563;-71
2022/08/10 08:11:53;;;;;;;3.30;2.17;;;;;;;;;;5074055;28;20457;-71
2022/08/10 08:14:21;;;;;;;6.27;4.10;;;;;;;;;;5102828;28;20845;-70
2022/08/10 08:16:56;;;;;;;5.60;2.20;;;;;;;;;;5103535;28;20894;-70
2022/08/10 08:22:47;;;;;;;6.10;2.73;;;;;;;;;;5031931;28;20471;-70
2022/08/10 08:25:29;;;;;;;3.67;2.07;;;;;;;;;;5067665;28;20484;-70
2022/08/10 08:27:58;;;;;;;4.70;2.47;;;;;;;;;;5073703;28;20454;-71
2022/08/10 08:30:25;;;;;;;5.37;2.03;;;;;;;;;;5069467;28;20740;-71
2022/08/10 08:33:12;;;;;;;3.10;1.80;;;;;;;;;;5070629;28;20459;-71
2022/08/10 08:36:07;;;;;;;3.30;1.90;;;;;;;;;;5078947;28;21015;-70
2022/08/10 08:38:39;;;;;;;6.67;2.20;;;;;;;;;;5068672;28;20472;-70
2022/08/10 08:41:24;;;;;;;4.27;1.80;;;;;;;;;;5088818;28;20467;-70
2022/08/10 08:43:57;;;;;;;3.17;2.10;;;;;;;;;;5093013;28;20483;-70
2022/08/10 08:46:42;;;;;;;6.03;2.27;;;;;;;;;;5093423;28;20451;-70
2022/08/10 08:49:27;;;;;;;3.17;1.80;;;;;;;;;;5091680;28;20564;-69
2022/08/10 08:52:01;;;;;;;3.13;2.10;;;;;;;;;;5098628;28;20450;-70
2022/08/10 08:54:34;;;;;;;2.90;2.00;;;;;;;;;;5108919;28;20552;-69
2022/08/10 08:57:03;;;;;;;7.00;2.30;;;;;;;;;;5073123;28;20459;-70
2022/08/10 08:59:39;;;;;;;4.27;1.87;;;;;;;;;;5071695;28;20452;-70
2022/08/10 09:02:20;;;;;;;2.53;1.70;;;;;;;;;;5072860;28;20538;-70
2022/08/10 09:05:12;;;;;;;;;;;;;;;;;;;;;
2022/08/10 09:07:55;;;;;;;17.13;3.67;;;;;;;;;;5080673;28;20752;-71
2022/08/10 09:10:38;;;;;;;5.00;2.70;;;;;;;;;;5076894;28;20471;-70
2022/08/10 09:19:42;;;;;;;2.73;1.60;;;;;;;;;;5047899;28;20562;-71
2022/08/10 09:22:18;;;;;;;2.70;1.80;;;;;;;;;;5084770;28;20817;-69
2022/08/10 09:28:39;;;;;;;3.73;1.53;;;;;;;;;;5076062;28;20478;-72
2022/08/10 09:34:20;;;;;;;4.10;1.50;;;;;;;;;;5083993;28;20457;-71
2022/08/10 09:36:52;;;;;;;8.67;2.07;;;;;;;;;;5085136;28;20457;-71
2022/08/10 09:39:24;;;;;;;3.97;1.60;;;;;;;;;;5076411;28;20546;-72
2022/08/10 09:42:10;;;;;;;6.13;2.80;;;;;;;;;;5083813;28;20511;-72
2022/08/10 09:44:52;;;;;;;4.20;1.80;;;;;;;;;;5076381;28;20484;-70
2022/08/10 09:47:25;;;;;;;4.83;1.83;;;;;;;;;;5083167;28;20758;-72
2022/08/10 09:50:02;;;;;;;3.73;2.70;;;;;;;;;;5075955;28;20468;-72
2022/08/10 09:52:51;;;;;;;2.93;1.80;;;;;;;;;;5086304;28;20497;-71
2022/08/10 09:55:24;;;;;;;3.43;1.80;;;;;;;;;;5075091;28;20757;-70
2022/08/10 09:58:02;;;;;;;3.73;1.90;;;;;;;;;;5096636;28;20464;-70
2022/08/10 10:00:47;;;;;;;5.47;2.00;;;;;;;;;;5077365;28;20467;-71
2022/08/10 10:03:15;;;;;;;9.03;2.47;;;;;;;;;;5076292;28;20586;-71
2022/08/10 10:05:51;;;;;;;6.80;2.20;;;;;;;;;;5088104;28;20956;-71
2022/08/10 10:08:23;;;;;;;4.07;1.77;;;;;;;;;;5082344;28;20753;-71
2022/08/10 10:10:59;;;;;;;5.33;2.20;;;;;;;;;;5078683;28;20555;-70
2022/08/10 10:13:30;;;;;;;2.67;1.30;;;;;;;;;;5085472;28;20466;-71
2022/08/10 10:16:03;;;;;;;5.77;1.60;;;;;;;;;;5078310;28;20468;-72
2022/08/10 10:18:50;;;;;;;3.63;1.60;;;;;;;;;;5077953;28;20468;-71
2022/08/10 10:21:45;;;;;;;4.00;2.67;;;;;;;;;;5088100;28;20868;-72
2022/08/10 10:27:46;;;;;;;9.07;3.90;;;;;;;;;;5036582;28;20579;-72
2022/08/10 10:30:26;;;;;;;8.00;1.60;;;;;;;;;;5085460;28;20464;-73
2022/08/10 10:33:02;;;;;;;4.20;2.47;;;;;;;;;;5088934;28;20574;-72
2022/08/10 10:35:36;;;;;;;5.17;2.17;;;;;;;;;;5075266;28;21013;-72
2022/08/10 10:38:18;;;;;;;2.90;1.53;;;;;;;;;;5088829;28;20502;-72
2022/08/10 10:41:00;;;;;;;8.27;3.83;;;;;;;;;;5094021;28;20743;-73
2022/08/10 10:43:41;;;;;;;2.40;1.67;;;;;;;;;;5095092;28;20487;-73
2022/08/10 10:49:21;;;;;;;3.63;1.70;;;;;;;;;;5094557;28;20457;-71
2022/08/10 10:51:54;;;;;;;2.33;1.30;;;;;;;;;;5095711;28;20538;-72
2022/08/10 10:54:28;;;;;;;5.93;1.50;;;;;;;;;;5094973;28;20447;-70
2022/08/10 10:56:58;;;;;;;4.40;1.40;;;;;;;;;;5094433;28;20528;-72
2022/08/10 10:59:32;;;;;;;3.73;1.33;;;;;;;;;;5093287;28;20456;-73
2022/08/10 11:02:17;;;;;;;4.90;1.80;;;;;;;;;;5110866;28;21046;-72
2022/08/10 11:04:51;;;;;;;5.87;1.97;;;;;;;;;;5074837;28;20484;-70
2022/08/10 11:07:39;;;;;;;3.20;1.47;;;;;;;;;;5089118;28;20481;-72
2022/08/10 11:10:25;;;;;;;5.20;2.10;;;;;;;;;;5079470;28;20456;-72
2022/08/10 11:13:11;;;;;;;2.13;1.27;;;;;;;;;;5081738;28;20451;-72
2022/08/10 11:15:51;;;;;;;4.10;2.07;;;;;;;;;;5084270;28;20452;-72
2022/08/10 11:18:24;;;;;;;3.60;1.40;;;;;;;;;;5093051;28;20455;-72
2022/08/10 11:21:07;;;;;;;3.20;1.47;;;;;;;;;;5094735;28;20440;-72
2022/08/10 11:23:37;;;;;;;6.33;1.50;;;;;;;;;;5093661;28;20491;-71
2022/08/10 11:26:08;;;;;;;2.63;1.73;;;;;;;;;;5093743;28;21102;-71
2022/08/10 11:28:43;;;;;;;2.70;1.80;;;;;;;;;;5095268;28;20447;-72
2022/08/10 11:31:13;;;;;;;6.60;1.87;;;;;;;;;;5093755;28;20513;-71
2022/08/10 11:33:44;;;;;;;4.17;1.47;;;;;;;;;;5093866;28;20447;-72
2022/08/10 11:36:24;;;;;;;2.73;1.70;;;;;;;;;;5091505;28;20728;-72
2022/08/10 11:38:57;;;;;;;3.20;1.23;;;;;;;;;;5095616;28;20448;-73
2022/08/10 11:41:31;;;;;;;6.23;2.33;;;;;;;;;;5092276;28;20502;-70
2022/08/10 11:44:04;;;;;;;2.73;1.20;;;;;;;;;;5095916;28;20490;-73
2022/08/10 11:46:37;;;;;;;5.60;1.70;;;;;;;;;;5088563;28;20475;-71
2022/08/10 11:49:08;;;;;;;4.17;1.47;;;;;;;;;;5096358;28;20495;-74
2022/08/10 11:51:42;;;;;;;3.07;2.10;;;;;;;;;;5091173;28;20475;-73
2022/08/10 11:54:15;;;;;;;6.17;2.30;;;;;;;;;;5086050;28;20559;-73
2022/08/10 11:56:47;;;;;;;2.70;1.83;;;;;;;;;;5091520;28;20513;-71
2022/08/10 12:02:13;;;;;;;2.30;1.30;;;;;;;;;;5074176;28;20471;-73
2022/08/10 12:04:46;;;;;;;3.07;1.70;;;;;;;;;;5078157;28;20479;-73
2022/08/10 12:07:17;;;;;;;3.20;1.43;;;;;;;;;;5092961;28;20459;-72
2022/08/10 12:09:45;;;;;;;5.43;1.67;;;;;;;;;;5092633;28;20527;-74
2022/08/10 12:12:13;;;;;;;2.87;1.20;;;;;;;;;;5092884;28;20590;-73
2022/08/10 12:14:44;;;;;;;5.73;1.50;;;;;;;;;;5092300;28;20455;-71
2022/08/10 12:17:16;;;;;;;8.07;4.17;;;;;;;;;;5086919;28;20983;-71
2022/08/10 12:19:46;;;;;;;3.47;1.23;;;;;;;;;;5073438;28;20485;-73
2022/08/10 12:22:19;;;;;;;2.40;1.20;;;;;;;;;;5073355;28;20505;-71
2022/08/10 12:24:48;;;;;;;6.13;1.60;;;;;;;;;;5073198;28;21165;-72
2022/08/10 12:27:20;;;;;;;2.23;1.50;;;;;;;;;;5071113;28;20533;-71
2022/08/10 12:29:50;;;;;;;1.90;1.10;;;;;;;;;;5070104;28;20467;-71
2022/08/10 12:32:23;;;;;;;5.03;1.50;;;;;;;;;;5072562;28;20490;-71
2022/08/10 12:34:51;;;;;;;3.10;2.00;;;;;;;;;;5073953;28;20472;-74
2022/08/10 12:37:22;;;;;;;3.53;1.63;;;;;;;;;;5075028;28;20449;-72
2022/08/10 12:40:00;;;;;;;6.43;1.43;;;;;;;;;;5074655;28;20530;-74
2022/08/10 12:42:34;;;;;;;3.83;1.50;;;;;;;;;;5074042;28;20831;-72
2022/08/10 12:45:34;;;;;;;2.17;1.10;;;;;;;;;;5073713;28;20484;-71
2022/08/10 12:48:09;;;;;;;2.07;1.20;;;;;;;;;;5073288;28;20445;-72
2022/08/10 12:50:40;;;;;;;4.73;1.30;;;;;;;;;;5084880;28;20516;-71
2022/08/10 12:53:21;;;;;;;2.70;1.17;;;;;;;;;;5091846;28;20460;-72
2022/08/10 12:55:49;;;;;;;3.50;1.20;;;;;;;;;;5092658;28;20958;-72
2022/08/10 12:58:18;;;;;;;3.80;1.60;;;;;;;;;;5091041;28;20451;-70
2022/08/10 13:00:48;;;;;;;2.37;1.03;;;;;;;;;;5073730;28;20464;-72
2022/08/10 13:03:15;;;;;;;5.53;1.63;;;;;;;;;;5075201;28;20460;-69
2022/08/10 13:05:43;;;;;;;3.07;1.53;;;;;;;;;;5073541;28;20460;-72
2022/08/10 13:10:59;;;;;;;2.50;1.50;;;;;;;;;;5090791;28;20446;-70
2022/08/10 13:13:31;;;;;;;3.87;1.20;;;;;;;;;;5091868;28;20447;-71
2022/08/10 13:15:59;;;;;;;6.30;2.60;;;;;;;;;;5090837;28;20459;-71
2022/08/10 13:18:28;;;;;;;3.33;1.30;;;;;;;;;;5091692;28;20543;-71
2022/08/10 13:21:03;;;;;;;5.90;1.73;;;;;;;;;;5093812;28;20458;-70
2022/08/10 13:23:34;;;;;;;6.87;1.77;;;;;;;;;;5086420;28;20472;-73
2022/08/10 13:26:04;;;;;;;3.40;1.57;;;;;;;;;;5092217;28;20798;-72
2022/08/10 13:28:36;;;;;;;3.50;1.40;;;;;;;;;;5092160;28;20458;-72
2022/08/10 13:31:03;;;;;;;3.17;1.17;;;;;;;;;;5092417;28;20447;-72
2022/08/10 13:33:39;;;;;;;2.57;1.43;;;;;;;;;;5092750;28;20451;-74
2022/08/10 13:36:08;;;;;;;3.30;1.10;;;;;;;;;;5093517;28;20459;-74
2022/08/10 13:38:42;;;;;;;5.60;2.67;;;;;;;;;;5092069;28;21042;-73
2022/08/10 13:41:37;;;;;;;3.33;2.93;;;;;;;;;;5091575;28;20460;-74
2022/08/10 13:44:04;;;;;;;2.00;1.27;;;;;;;;;;5103793;28;20527;-73
2022/08/10 13:46:31;;;;;;;4.00;1.27;;;;;;;;;;5112622;28;20454;-71
2022/08/10 13:49:00;;;;;;;5.13;1.70;;;;;;;;;;5093660;28;20471;-73
2022/08/10 13:51:30;;;;;;;3.10;1.60;;;;;;;;;;5092814;28;20856;-72
2022/08/10 13:54:03;;;;;;;3.57;1.43;;;;;;;;;;5083646;28;20467;-73
2022/08/10 13:56:37;;;;;;;2.37;1.10;;;;;;;;;;5072176;28;20468;-73
2022/08/10 13:59:05;;;;;;;5.80;1.63;;;;;;;;;;5080741;28;20463;-73
2022/08/10 14:01:36;;;;;;;8.43;1.87;;;;;;;;;;5099054;28;20494;-72
2022/08/10 14:04:05;;;;;;;3.50;1.10;;;;;;;;;;5095334;28;20495;-73
2022/08/10 14:06:33;;;;;;;3.43;1.77;;;;;;;;;;5095502;28;20447;-71
2022/08/10 14:09:03;;;;;;;4.10;1.87;;;;;;;;;;5092762;28;20947;-73
2022/08/10 14:11:38;;;;;;;3.07;1.10;;;;;;;;;;5088674;28;20451;-72
2022/08/10 14:14:11;;;;;;;3.70;1.70;;;;;;;;;;5089597;28;20894;-71
2022/08/10 14:16:42;;;;;;;6.70;5.10;;;;;;;;;;5110196;28;20450;-71
2022/08/10 14:19:14;;;;;;;9.50;3.43;;;;;;;;;;5081825;28;20456;-73
2022/08/10 14:21:47;;;;;;;2.43;1.27;;;;;;;;;;5087658;28;20462;-72
2022/08/10 14:24:23;;;;;;;4.03;1.93;;;;;;;;;;5084103;28;20670;-72
2022/08/10 14:29:53;;;;;;;8.90;7.43;;;;;;;;;;5084957;28;20472;-72
2022/08/10 14:32:33;;;;;;;5.33;2.00;;;;;;;;;;5091409;28;20475;-74
2022/08/10 14:35:06;;;;;;;2.87;1.40;;;;;;;;;;5084671;28;20885;-73
2022/08/10 14:37:38;;;;;;;3.00;1.30;;;;;;;;;;5078276;28;20471;-73
2022/08/10 14:40:10;;;;;;;2.40;1.27;;;;;;;;;;5086448;28;20464;-73
2022/08/10 14:42:44;;;;;;;4.77;1.50;;;;;;;;;;5079022;28;20530;-73
2022/08/10 14:45:13;;;;;;;3.93;1.70;;;;;;;;;;5074697;28;20772;-73
2022/08/10 14:47:45;;;;;;;2.30;1.70;;;;;;;;;;5085569;28;20463;-73
2022/08/10 14:50:17;;;;;;;9.23;1.30;;;;;;;;;;5092738;28;20452;-73
2022/08/10 14:52:47;;;;;;;3.20;1.30;;;;;;;;;;5113500;28;20525;-74
2022/08/10 14:55:51;;;;;;;3.20;1.30;;;;;;;;;;5087752;28;20456;-73
2022/08/10 14:58:20;;;;;;;9.00;4.40;;;;;;;;;;5085557;28;20509;-73
2022/08/10 15:00:48;;;;;;;2.30;1.03;;;;;;;;;;5088815;28;20437;-74
2022/08/10 15:03:16;;;;;;;3.50;2.13;;;;;;;;;;5092897;28;20466;-74
2022/08/10 15:05:44;;;;;;;2.50;1.10;;;;;;;;;;5078586;28;20487;-73
2022/08/10 15:08:12;;;;;;;4.10;2.50;;;;;;;;;;5089513;28;21068;-73
2022/08/10 15:10:40;;;;;;;3.23;1.40;;;;;;;;;;5077003;28;20455;-73
2022/08/10 15:13:11;;;;;;;2.33;1.00;;;;;;;;;;5074019;28;20448;-73
2022/08/10 15:15:43;;;;;;;2.20;1.23;;;;;;;;;;5085372;28;20572;-71
2022/08/10 15:18:12;;;;;;;2.40;1.20;;;;;;;;;;5081322;28;20455;-71
2022/08/10 15:20:40;;;;;;;3.23;1.07;;;;;;;;;;5089478;28;20456;-71
2022/08/10 15:23:08;;;;;;;2.27;1.20;;;;;;;;;;5075733;28;20461;-73
2022/08/10 15:25:41;;;;;;;5.77;1.30;;;;;;;;;;5085783;28;20494;-73
2022/08/10 15:28:10;;;;;;;4.90;1.30;;;;;;;;;;5101653;28;20621;-73
2022/08/10 15:30:41;;;;;;;2.50;1.00;;;;;;;;;;5085696;28;20443;-74
2022/08/10 15:38:58;;;;;;;3.73;2.00;;;;;;;;;;5087823;28;20462;-73
2022/08/10 15:41:36;;;;;;;3.80;1.43;;;;;;;;;;5096145;28;20983;-74
2022/08/10 15:44:04;;;;;;;1.90;0.93;;;;;;;;;;5087847;28;20965;-73
2022/08/10 15:46:42;;;;;;;1.80;1.00;;;;;;;;;;5092177;28;20460;-72
2022/08/10 15:49:11;;;;;;;2.87;1.03;;;;;;;;;;5091873;28;20946;-72
2022/08/10 15:51:41;;;;;;;2.57;1.20;;;;;;;;;;5075305;28;20465;-71
2022/08/10 15:54:12;;;;;;;2.10;1.30;;;;;;;;;;5082616;28;20950;-72